Airfield :
LOGIN :

Register | Disclaimer

   EN    FR    IT 

 










Legend :    VFR   Marginal VFR   IFR   Intensive IFR   Very Intensive IFR
Visi :
Ceiling :
>= 8 km
>= 3000ft
5 to 8 km
1000 to 3000 ft
1500m to 5 km
500 to 1000 ft
800 to 1500m
200 to 500 ft
< 800m
< 200 ft
Symbols :   Thunderstorms  Fog  Heavy snow  Heavy precipitations  Wind > 20 kt
SIGMETs :     Misc.  Thunderstorms  Icing  Turbulence  Mountain Waves  Volcanic Ashes






- Airport Elevation : 697 ft
- IATA code : PEG


LIRZ - San Edigio Perugia

CURRENT METAR :
  • 231350Z AUTO 21012KT 9999 -RA BKN037/// 10/06 Q1006

EXPIRED METARs :
  • 231320Z AUTO 20014KT 9999 -RA BKN036/// 09/06 Q1006
  • 231250Z AUTO 20014KT 9999 BKN038/// 13/05 Q1005
  • 231220Z AUTO 17005KT 150V210 9999 FEW035/// 13/07 Q1005
  • 231150Z AUTO 19010KT 9999 SCT043/// SCT100/// 13/07 Q1006
  • 231120Z AUTO 18011KT 9999 -RA BKN030/// 09/06 Q1006
  • 231050Z AUTO 18008KT 150V220 9999 FEW068/// SCT097/// 13/06 Q1006
  • 231020Z AUTO 20011KT 9999 BKN051/// 12/05 Q1006
  • 230950Z AUTO 23012KT 9999 BKN051/// 10/06 Q1007
  • 230920Z AUTO 21012KT 200V260 9999 BKN047/// 12/04 Q1006

TAF TAF LIRZ
Valid from the 23 at 12:00 until the 24 at 12:00 UTC


231100Z 2312/2412 19013KT 9999 SCT035
TEMPO 2312/2315 19015G25KT
TEMPO 2312/2318 4000 SHRA
TEMPO 2318/2406 4000 TSRA
BECMG 2318/2320 VRB05KT



MET'MAP, your aeronautical weather chart ! - Copyright ORBIFLY December 2007 - Disclaimer

ORBIFLY MET'MAP TEAM :

Programming & Development : Alexandra Zaïnal
Original concept : Baudouin d'Aumeries
Technical & hardware support : Manuel Goepfert
Assistance : Marc-Olivier Méhu




SOURCES & CREDITS :

   NOAA